Time;durP1;ratioP1;P1;durP2;ratioP2;P2;SDS_P1;SDS_P2;PMS_P1;PMS_P2;Temp;Humidity;BMP_temperature;BMP_pressure;BME280_temperature;BME280_humidity;BME280_pressure;Samples;Min_cycle;Max_cycle;Signal;HPM_P1;HPM_P2
2021/06/22 08:50:54;;;;;;;;;28.00;25.50;;;;;21.37;60.34;100655.91;5145315;27;45487;-72
2021/06/22 08:53:19;;;;;;;;;30.50;22.75;;;;;21.74;59.76;100647.19;5092256;27;45383;-73
2021/06/22 08:55:46;;;;;;;;;26.50;23.00;;;;;22.00;59.06;100655.34;5093314;27;45965;-73
2021/06/22 08:58:13;;;;;;;;;22.00;19.50;;;;;22.17;58.34;100662.88;5076730;27;45274;-73
2021/06/22 09:00:40;;;;;;;;;23.50;21.50;;;;;22.26;58.30;100660.91;5104764;27;45395;-73
2021/06/22 09:03:11;;;;;;;;;23.25;21.25;;;;;22.34;58.07;100661.63;5088715;27;45904;-73
2021/06/22 09:05:37;;;;;;;;;22.75;20.00;;;;;22.38;57.53;100657.09;5094735;27;45319;-73
2021/06/22 09:08:03;;;;;;;;;23.25;20.75;;;;;22.41;57.68;100662.31;5094457;27;45567;-70
2021/06/22 09:10:33;;;;;;;;;17.75;17.75;;;;;22.42;57.51;100661.41;5110008;27;48615;-71
2021/06/22 09:12:59;;;;;;;;;22.00;20.50;;;;;22.46;57.35;100663.06;5093291;27;45441;-70
2021/06/22 09:15:29;;;;;;;;;24.25;21.00;;;;;22.52;57.21;100652.31;5092464;27;45393;-73
2021/06/22 09:17:56;;;;;;;;;20.25;16.50;;;;;22.59;57.00;100655.66;5094692;27;45490;-73
2021/06/22 09:20:41;;;;;;;;;22.50;19.25;;;;;22.91;56.67;100651.25;5092049;27;46138;-73
2021/06/22 09:23:13;;;;;;;;;18.00;17.00;;;;;23.44;56.19;100662.09;5073782;27;45502;-73
2021/06/22 09:25:39;;;;;;;;;16.00;16.00;;;;;23.79;55.37;100664.56;5089807;27;45355;-74
2021/06/22 09:28:05;;;;;;;;;18.75;18.25;;;;;24.27;54.39;100666.53;5072778;28;45472;-73
2021/06/22 09:30:48;;;;;;;;;19.00;17.50;;;;;24.62;53.59;100668.94;5073609;27;45355;-73
2021/06/22 09:33:24;;;;;;;;;19.25;18.00;;;;;24.68;53.38;100674.03;5092498;27;45342;-71
2021/06/22 09:36:10;;;;;;;;;19.25;18.25;;;;;24.61;53.25;100673.38;5094119;27;45322;-71
2021/06/22 09:38:38;;;;;;;;;21.50;20.50;;;;;24.52;53.40;100671.00;5092504;27;45402;-71
2021/06/22 09:41:09;;;;;;;;;20.25;18.75;;;;;24.56;51.92;100665.56;5093848;27;46988;-71
2021/06/22 09:43:39;;;;;;;;;20.25;18.00;;;;;24.69;52.16;100666.00;5091125;27;45335;-71
2021/06/22 09:46:06;;;;;;;;;23.75;19.75;;;;;24.78;52.01;100662.13;5092772;27;45343;-71
2021/06/22 09:48:53;;;;;;;;;22.75;19.75;;;;;24.73;52.75;100664.97;5094096;27;45503;-71
2021/06/22 09:51:22;;;;;;;;;27.75;22.50;;;;;24.61;52.51;100675.16;5092421;27;47338;-71
2021/06/22 09:53:48;;;;;;;;;24.50;19.75;;;;;24.47;52.53;100679.16;5090113;27;45904;-71
2021/06/22 09:56:22;;;;;;;;;24.00;21.00;;;;;24.31;52.79;100686.75;5074323;27;46079;-71
2021/06/22 09:58:47;;;;;;;;;23.50;22.25;;;;;24.15;52.79;100677.56;5091370;27;45444;-71
2021/06/22 10:01:33;;;;;;;;;23.50;22.00;;;;;23.98;52.23;100689.63;5083519;27;46208;-72
2021/06/22 10:04:21;;;;;;;;;21.75;20.25;;;;;23.82;53.19;100694.53;5076456;27;45389;-72
2021/06/22 10:06:58;;;;;;;;;23.75;20.50;;;;;23.68;53.25;100700.25;5059600;28;45289;-72
2021/06/22 10:09:28;;;;;;;;;19.00;18.75;;;;;23.57;53.34;100694.41;5074178;27;45865;-72
2021/06/22 10:12:05;;;;;;;;;20.50;20.25;;;;;23.48;53.30;100700.00;5078678;28;45577;-72
2021/06/22 10:14:30;;;;;;;;;21.25;20.75;;;;;23.40;53.67;100694.94;5079019;28;45621;-71
2021/06/22 10:17:00;;;;;;;;;25.00;20.25;;;;;23.33;53.62;100696.91;5079801;27;45291;-72
2021/06/22 10:19:25;;;;;;;;;19.25;19.25;;;;;23.26;53.79;100710.38;5060560;28;45452;-72
2021/06/22 10:21:52;;;;;;;;;20.75;19.50;;;;;23.19;53.73;100712.31;5077248;28;46155;-72
2021/06/22 10:24:18;;;;;;;;;19.75;19.25;;;;;23.14;53.83;100724.88;5081323;27;45753;-73
2021/06/22 10:26:44;;;;;;;;;17.75;15.25;;;;;23.06;53.45;100721.53;5078750;28;45277;-72
2021/06/22 10:29:09;;;;;;;;;20.00;16.25;;;;;22.99;53.88;100726.97;5079328;28;45498;-72
2021/06/22 10:31:36;;;;;;;;;17.25;16.00;;;;;22.93;54.56;100743.06;5075765;28;58831;-72
2021/06/22 10:34:01;;;;;;;;;18.50;16.75;;;;;22.86;54.55;100741.47;5075876;28;45438;-71
2021/06/22 10:36:29;;;;;;;;;15.00;13.00;;;;;22.78;54.89;100739.03;5078185;28;47146;-71
2021/06/22 10:38:55;;;;;;;;;16.00;13.75;;;;;22.71;55.25;100758.69;5078644;27;45218;-72
2021/06/22 10:41:20;;;;;;;;;17.50;14.75;;;;;22.58;55.88;100752.81;5076794;27;46011;-73
2021/06/22 10:43:47;;;;;;;;;16.00;14.75;;;;;22.55;56.02;100765.28;5061270;28;45525;-72
2021/06/22 10:46:17;;;;;;;;;18.00;15.00;;;;;22.47;56.17;100774.25;5079524;28;45457;-72
2021/06/22 10:48:47;;;;;;;;;19.75;14.75;;;;;22.40;56.15;100779.75;5079052;27;45473;-72
2021/06/22 10:51:39;;;;;;;;;17.00;16.75;;;;;22.33;56.41;100779.00;5076828;28;46049;-72
2021/06/22 10:54:04;;;;;;;;;16.50;13.25;;;;;22.29;56.28;100778.19;5075464;27;45206;-72
2021/06/22 10:56:30;;;;;;;;;20.00;15.50;;;;;22.23;56.53;100781.00;5077298;27;45279;-72
2021/06/22 10:59:14;;;;;;;;;16.25;15.75;;;;;22.19;56.46;100777.53;5072253;27;45553;-72
2021/06/22 11:01:52;;;;;;;;;16.25;15.75;;;;;22.14;57.02;100784.72;5085399;27;47363;-72
2021/06/22 11:04:17;;;;;;;;;16.25;12.50;;;;;22.10;57.22;100788.34;5081217;27;45509;-72
2021/06/22 11:06:58;;;;;;;;;17.00;15.00;;;;;22.05;57.62;100811.41;5073754;27;45550;-72
2021/06/22 11:09:24;;;;;;;;;15.00;12.50;;;;;22.01;57.93;100829.13;5077682;28;45299;-72
2021/06/22 11:12:10;;;;;;;;;15.00;13.00;;;;;21.97;58.00;100821.31;5076321;27;45202;-72
2021/06/22 11:15:04;;;;;;;;;15.25;12.75;;;;;21.92;57.71;100825.81;5077051;28;45522;-71
2021/06/22 11:17:41;;;;;;;;;11.50;11.50;;;;;21.89;57.44;100831.19;5078649;27;45695;-72
2021/06/22 11:20:08;;;;;;;;;12.00;10.00;;;;;21.84;57.81;100829.50;5078736;27;45319;-72
2021/06/22 11:22:55;;;;;;;;;9.75;7.75;;;;;21.83;57.82;100819.81;5077413;27;45822;-72
2021/06/22 11:25:22;;;;;;;;;11.00;10.50;;;;;21.80;58.09;100816.34;5078553;28;45407;-73
2021/06/22 11:28:03;;;;;;;;;6.25;6.00;;;;;21.75;57.84;100805.88;5042204;28;45449;-72
2021/06/22 11:30:50;;;;;;;;;5.75;5.75;;;;;21.70;58.21;100794.50;5078597;28;45411;-74
2021/06/22 11:33:35;;;;;;;;;5.25;5.00;;;;;21.67;58.61;100799.88;5078005;27;45554;-72
2021/06/22 11:36:19;;;;;;;;;5.75;5.75;;;;;21.63;58.05;100809.63;5078254;28;45406;-72
2021/06/22 11:39:10;;;;;;;;;7.00;7.00;;;;;21.58;57.68;100800.91;5075701;27;45503;-72
2021/06/22 11:41:36;;;;;;;;;15.25;12.00;;;;;21.59;58.22;100822.97;5077263;28;45503;-71
2021/06/22 11:44:07;;;;;;;;;20.50;16.25;;;;;21.55;58.09;100814.22;5078035;28;45335;-71
2021/06/22 11:46:33;;;;;;;;;14.50;10.00;;;;;21.53;58.06;100823.97;5078106;27;45838;-73
2021/06/22 11:48:59;;;;;;;;;14.25;11.00;;;;;21.49;57.87;100822.25;5076862;27;45386;-73
2021/06/22 11:51:46;;;;;;;;;11.25;9.00;;;;;21.48;58.27;100826.66;5060271;28;45326;-72
2021/06/22 11:54:12;;;;;;;;;11.25;10.00;;;;;21.46;57.95;100825.81;5077815;28;46368;-73
2021/06/22 11:56:37;;;;;;;;;10.00;10.00;;;;;21.45;58.15;100829.34;5059901;27;45601;-73
2021/06/22 11:59:03;;;;;;;;;8.75;6.25;;;;;21.39;58.12;100823.31;5057792;28;52733;-73
2021/06/22 12:01:29;;;;;;;;;5.25;4.75;;;;;21.42;58.68;100834.72;5059950;28;45507;-73
2021/06/22 12:03:54;;;;;;;;;9.75;7.00;;;;;21.38;58.04;100825.09;5074657;27;47235;-73
2021/06/22 12:06:23;;;;;;;;;8.00;5.00;;;;;21.37;58.35;100825.13;5076446;28;45427;-73
2021/06/22 12:08:49;;;;;;;;;4.50;4.50;;;;;21.32;58.13;100815.50;5076460;28;45337;-73
2021/06/22 12:11:31;;;;;;;;;5.50;4.25;;;;;21.32;58.24;100810.22;5078282;27;45348;-73
2021/06/22 12:13:56;;;;;;;;;4.50;4.50;;;;;21.30;58.38;100812.00;5075349;27;46301;-73
2021/06/22 12:16:29;;;;;;;;;7.00;3.00;;;;;21.28;58.43;100818.22;5077556;27;45441;-73
2021/06/22 12:19:00;;;;;;;;;3.00;2.00;;;;;21.26;58.21;100826.19;5076480;28;45331;-73
2021/06/22 12:21:26;;;;;;;;;4.00;4.00;;;;;21.22;57.70;100827.16;5076789;28;45502;-74
2021/06/22 12:23:53;;;;;;;;;4.00;3.50;;;;;21.22;57.95;100835.06;5076070;28;45436;-73
2021/06/22 12:26:19;;;;;;;;;3.00;2.00;;;;;21.19;58.09;100845.72;5058381;28;45532;-73
2021/06/22 12:28:46;;;;;;;;;2.00;2.00;;;;;21.19;57.82;100841.28;5077421;27;45324;-73
2021/06/22 12:31:13;;;;;;;;;2.50;2.00;;;;;21.17;57.89;100848.38;5076419;28;45444;-73
2021/06/22 12:33:44;;;;;;;;;2.75;2.75;;;;;21.15;57.51;100852.81;5076289;28;46155;-73
2021/06/22 12:36:18;;;;;;;;;2.75;2.75;;;;;21.10;57.89;100854.69;5075509;27;45452;-74
2021/06/22 12:38:43;;;;;;;;;2.25;2.25;;;;;21.10;57.58;100861.72;5060395;27;45365;-73
2021/06/22 12:41:09;;;;;;;;;2.00;2.00;;;;;21.07;57.53;100860.00;5077310;27;45514;-74
2021/06/22 12:43:39;;;;;;;;;4.50;3.00;;;;;21.05;57.49;100858.28;5075332;27;47058;-74
2021/06/22 12:46:04;;;;;;;;;3.00;2.75;;;;;21.04;57.47;100861.84;5076236;27;45723;-74
2021/06/22 12:48:30;;;;;;;;;3.50;3.25;;;;;21.01;57.94;100861.00;5055629;28;45435;-73
2021/06/22 12:50:55;;;;;;;;;2.00;2.00;;;;;20.99;57.79;100875.13;5055849;28;45276;-73
2021/06/22 12:53:20;;;;;;;;;3.00;3.00;;;;;20.97;57.58;100877.78;5074336;27;59439;-73
2021/06/22 12:55:47;;;;;;;;;4.75;2.00;;;;;20.96;57.57;100881.31;5072913;27;49240;-73
2021/06/22 12:58:13;;;;;;;;;4.00;2.75;;;;;20.95;57.95;100890.19;5055287;28;45407;-74
2021/06/22 13:00:46;;;;;;;;;3.00;3.00;;;;;20.91;57.38;100877.03;5057888;28;45629;-73
2021/06/22 13:03:19;;;;;;;;;2.00;2.00;;;;;20.92;57.38;100884.91;5074523;27;45573;-74
2021/06/22 13:05:53;;;;;;;;;18.75;17.25;;;;;20.91;57.51;100888.47;5073373;27;45619;-73
2021/06/22 13:08:23;;;;;;;;;4.00;3.00;;;;;20.84;57.51;100886.81;5058430;27;45338;-73
2021/06/22 13:10:54;;;;;;;;;2.00;2.00;;;;;20.87;57.70;100902.63;5081240;27;46410;-73
2021/06/22 13:13:27;;;;;;;;;5.00;4.00;;;;;20.86;57.47;100900.03;5055928;28;46281;-73
2021/06/22 13:16:12;;;;;;;;;2.25;2.25;;;;;20.83;57.21;100901.81;5073139;28;45485;-74
2021/06/22 13:19:14;;;;;;;;;2.75;2.25;;;;;20.82;57.66;100907.97;5073676;27;45669;-73
2021/06/22 13:21:53;;;;;;;;;3.00;3.00;;;;;20.81;57.39;100913.28;5065107;27;45704;-73
2021/06/22 13:24:27;;;;;;;;;3.50;3.50;;;;;20.80;57.90;100915.06;5065954;27;47264;-73
2021/06/22 13:26:53;;;;;;;;;5.00;3.00;;;;;20.79;57.67;100912.44;5086252;27;45801;-73
2021/06/22 13:29:18;;;;;;;;;3.00;3.00;;;;;20.77;57.81;100919.50;5074972;27;45626;-73
2021/06/22 13:31:51;;;;;;;;;6.00;3.00;;;;;20.77;57.37;100928.34;5076003;27;46508;-73
2021/06/22 13:34:17;;;;;;;;;6.00;4.00;;;;;20.77;57.64;100922.16;5055620;28;47257;-73
2021/06/22 13:36:47;;;;;;;;;5.00;4.00;;;;;20.72;57.59;100913.41;5058396;28;45747;-74
2021/06/22 13:39:13;;;;;;;;;5.00;4.00;;;;;20.73;57.17;100931.91;5078580;27;45530;-73
2021/06/22 13:41:47;;;;;;;;;5.00;4.75;;;;;20.71;57.34;100936.34;5080530;27;45507;-73
2021/06/22 13:44:12;;;;;;;;;4.75;4.00;;;;;20.68;57.34;100933.75;5088537;27;46041;-73
2021/06/22 13:46:38;;;;;;;;;5.00;3.50;;;;;20.69;57.06;100935.50;5077020;28;45465;-73
2021/06/22 13:49:03;;;;;;;;;5.00;4.00;;;;;20.67;57.23;100938.09;5077781;27;45434;-74
2021/06/22 13:51:32;;;;;;;;;6.25;5.00;;;;;20.67;57.35;100932.81;5078213;28;45560;-73
2021/06/22 13:54:06;;;;;;;;;4.50;4.00;;;;;20.68;56.85;100933.75;5077005;28;45495;-72
2021/06/22 13:56:31;;;;;;;;;6.75;5.50;;;;;20.65;56.64;100934.63;5077750;28;45571;-73
2021/06/22 13:58:57;;;;;;;;;5.00;4.00;;;;;20.66;56.78;100931.09;5096019;27;45767;-72
2021/06/22 14:01:22;;;;;;;;;6.50;4.00;;;;;20.64;56.93;100932.88;5082170;27;45462;-73
2021/06/22 14:03:48;;;;;;;;;6.00;6.00;;;;;20.65;57.11;100934.63;5076322;27;62857;-72
2021/06/22 14:06:14;;;;;;;;;6.25;6.25;;;;;20.66;57.07;100935.47;5079034;27;45386;-72
2021/06/22 14:08:40;;;;;;;;;5.00;5.00;;;;;20.67;57.12;100942.53;5078509;28;45453;-73
2021/06/22 14:11:05;;;;;;;;;5.50;4.00;;;;;20.66;57.12;100939.00;5076454;28;45730;-73
2021/06/22 14:13:31;;;;;;;;;5.00;5.00;;;;;20.67;57.12;100935.47;5043588;28;48175;-74
2021/06/22 14:15:58;;;;;;;;;4.75;4.25;;;;;20.66;56.53;100938.13;5075716;27;45464;-73
2021/06/22 14:18:23;;;;;;;;;3.25;3.25;;;;;20.65;57.23;100933.75;5075565;27;45930;-75
2021/06/22 14:20:50;;;;;;;;;5.75;5.00;;;;;20.67;56.67;100943.38;5064966;27;45526;-73
2021/06/22 14:23:15;;;;;;;;;5.50;4.50;;;;;20.67;57.13;100946.03;5074180;28;46460;-73
2021/06/22 14:25:41;;;;;;;;;4.50;4.50;;;;;20.66;56.50;100944.31;5077651;28;45439;-73
2021/06/22 14:28:07;;;;;;;;;7.00;6.00;;;;;20.66;56.48;100940.75;5077483;27;45314;-73
2021/06/22 14:30:33;;;;;;;;;4.00;4.00;;;;;20.65;56.40;100945.19;5077670;28;45423;-73
2021/06/22 14:32:58;;;;;;;;;4.00;4.00;;;;;20.67;56.73;100948.66;5077018;27;54252;-73
2021/06/22 14:35:24;;;;;;;;;4.50;4.50;;;;;20.67;56.77;100948.66;5077676;28;45363;-73
2021/06/22 14:37:49;;;;;;;;;6.50;5.00;;;;;20.71;56.93;100946.03;5078947;27;45450;-73
2021/06/22 14:40:18;;;;;;;;;6.25;5.00;;;;;20.70;55.92;100946.91;5077628;28;45456;-72
2021/06/22 14:42:43;;;;;;;;;5.75;5.75;;;;;20.66;56.19;100952.22;5077186;27;45765;-71
2021/06/22 14:45:10;;;;;;;;;6.25;6.25;;;;;20.66;56.39;100968.06;5076212;27;45766;-72
2021/06/22 14:47:36;;;;;;;;;9.00;6.00;;;;;20.66;56.54;100968.06;5074496;28;45353;-73
2021/06/22 14:50:01;;;;;;;;;7.75;6.00;;;;;20.68;56.96;100973.38;5060039;28;45492;-72
2021/06/22 14:52:27;;;;;;;;;7.25;5.50;;;;;20.65;56.76;100963.69;5078579;27;45376;-71
2021/06/22 14:54:52;;;;;;;;;8.00;6.00;;;;;20.67;56.78;100974.22;5077782;27;45269;-73
2021/06/22 14:57:18;;;;;;;;;3.25;3.25;;;;;20.66;56.35;100976.00;5060099;28;45404;-71
2021/06/22 14:59:43;;;;;;;;;6.00;5.00;;;;;20.69;56.84;100977.75;5077421;27;45569;-71
2021/06/22 15:02:09;;;;;;;;;7.00;6.25;;;;;20.68;56.47;100984.78;5075111;27;46304;-71
2021/06/22 15:04:34;;;;;;;;;5.00;5.00;;;;;20.67;56.00;100980.34;5077930;27;45255;-71
2021/06/22 15:07:00;;;;;;;;;7.50;6.00;;;;;20.65;56.51;100987.44;5076835;27;45239;-70
2021/06/22 15:09:26;;;;;;;;;7.00;5.25;;;;;20.65;56.46;100986.59;5075742;27;45347;-70
2021/06/22 15:11:52;;;;;;;;;4.25;4.25;;;;;20.62;56.44;100987.50;5059213;27;47375;-71
2021/06/22 15:14:19;;;;;;;;;5.75;5.75;;;;;20.62;56.59;100989.25;5084663;27;45295;-70
2021/06/22 15:16:45;;;;;;;;;7.25;5.50;;;;;20.59;56.17;100990.16;5072147;28;46251;-64
2021/06/22 15:19:10;;;;;;;;;7.00;6.00;;;;;20.57;57.41;100991.09;5078015;28;45484;-65
2021/06/22 15:21:36;;;;;;;;;5.25;5.25;;;;;20.53;57.03;100986.75;5077949;27;45494;-64
2021/06/22 15:24:01;;;;;;;;;6.00;5.00;;;;;20.52;57.29;101001.69;5076046;28;48832;-64
2021/06/22 15:26:26;;;;;;;;;6.50;6.50;;;;;20.44;57.23;101000.91;5078838;27;45909;-64
2021/06/22 15:28:52;;;;;;;;;6.25;5.25;;;;;20.44;56.89;101015.03;5077831;27;45154;-64
2021/06/22 15:31:17;;;;;;;;;4.25;4.25;;;;;20.39;56.88;101008.91;5078654;27;45965;-65
2021/06/22 15:33:43;;;;;;;;;4.50;4.50;;;;;20.35;56.93;101009.84;5078521;27;50595;-65
2021/06/22 15:36:09;;;;;;;;;6.75;6.75;;;;;20.31;57.00;101014.28;5076594;28;45552;-64
2021/06/22 15:38:34;;;;;;;;;6.00;6.00;;;;;20.27;57.25;101012.56;5079127;28;45297;-64
2021/06/22 15:40:59;;;;;;;;;7.50;6.25;;;;;20.23;57.79;101018.75;5078275;27;51922;-64
2021/06/22 15:43:27;;;;;;;;;6.25;6.25;;;;;20.21;56.59;101031.13;5077152;27;45347;-64
2021/06/22 15:45:53;;;;;;;;;6.75;6.75;;;;;20.18;56.67;101033.78;5075736;28;45285;-64
2021/06/22 15:48:18;;;;;;;;;7.00;5.25;;;;;20.16;56.87;101035.56;5077825;27;45316;-64
2021/06/22 15:50:44;;;;;;;;;7.50;7.00;;;;;20.13;57.41;101032.97;5076816;27;53438;-64
2021/06/22 15:53:10;;;;;;;;;7.25;5.50;;;;;20.11;57.00;101040.00;5078566;27;45313;-64
2021/06/22 15:55:36;;;;;;;;;6.75;6.00;;;;;20.10;57.47;101043.53;5077554;27;45325;-64
2021/06/22 15:58:02;;;;;;;;;6.75;5.75;;;;;20.08;57.08;101058.53;5077726;27;45212;-63
2021/06/22 16:00:28;;;;;;;;;7.00;7.00;;;;;20.05;57.52;101059.44;5077939;27;46105;-64
2021/06/22 16:02:53;;;;;;;;;6.25;5.75;;;;;20.02;57.00;101058.56;5077157;27;45879;-64
2021/06/22 16:05:19;;;;;;;;;7.00;7.00;;;;;19.99;57.81;101064.78;5077188;27;50162;-64
2021/06/22 16:07:45;;;;;;;;;11.50;10.25;;;;;19.98;57.31;101063.03;5074794;27;45839;-63
2021/06/22 16:10:12;;;;;;;;;6.75;6.75;;;;;19.96;57.35;101070.94;5073919;28;45607;-63
2021/06/22 16:12:37;;;;;;;;;9.00;7.75;;;;;19.95;57.39;101071.84;5075875;27;45342;-62
2021/06/22 16:15:04;;;;;;;;;6.50;6.25;;;;;19.95;58.27;101074.47;5076451;27;45356;-62
2021/06/22 16:17:29;;;;;;;;;8.25;8.00;;;;;19.95;57.41;101076.25;5075829;27;45562;-62
2021/06/22 16:19:55;;;;;;;;;10.50;7.00;;;;;19.94;57.69;101064.81;5074308;27;46064;-62
2021/06/22 16:22:21;;;;;;;;;8.25;7.25;;;;;19.93;57.72;101063.03;5090144;27;51692;-62
2021/06/22 16:24:47;;;;;;;;;7.75;7.00;;;;;19.93;57.77;101059.53;5075947;27;45472;-69
2021/06/22 16:27:13;;;;;;;;;6.75;5.50;;;;;19.90;57.52;101063.06;5058738;28;45274;-69
2021/06/22 16:29:38;;;;;;;;;7.00;7.00;;;;;19.90;57.38;101071.00;5058999;28;58843;-69
2021/06/22 16:32:04;;;;;;;;;7.50;7.50;;;;;19.94;57.29;101067.44;5077335;27;49447;-69
2021/06/22 16:34:29;;;;;;;;;9.00;7.75;;;;;19.95;57.65;101069.19;5074192;28;45351;-69
2021/06/22 16:36:54;;;;;;;;;9.25;6.25;;;;;19.95;57.05;101066.56;5075354;27;45478;-69
2021/06/22 16:39:20;;;;;;;;;7.00;6.50;;;;;19.96;57.57;101076.22;5077275;27;58409;-67
2021/06/22 16:41:45;;;;;;;;;9.75;6.00;;;;;19.97;57.01;101079.72;5075552;27;48569;-67
2021/06/22 16:44:11;;;;;;;;;10.75;8.25;;;;;19.96;56.87;101081.50;5074554;27;46257;-67
2021/06/22 16:46:36;;;;;;;;;8.50;7.25;;;;;19.96;56.76;101076.22;5076489;28;45475;-67
2021/06/22 16:49:02;;;;;;;;;7.00;7.00;;;;;19.96;56.47;101083.25;5058658;28;57948;-67
2021/06/22 16:51:27;;;;;;;;;7.00;7.00;;;;;19.96;56.30;101086.78;5075342;27;45639;-67
2021/06/22 16:53:53;;;;;;;;;7.00;7.00;;;;;19.97;56.32;101091.16;5059060;28;51905;-67
2021/06/22 16:56:18;;;;;;;;;8.00;6.50;;;;;19.97;57.03;101101.69;5077846;27;45476;-68
2021/06/22 16:58:44;;;;;;;;;8.50;6.50;;;;;19.98;56.59;101097.31;5077637;27;45478;-67
2021/06/22 17:01:12;;;;;;;;;9.75;7.75;;;;;19.97;56.48;101098.19;5074587;27;45368;-67
2021/06/22 17:03:39;;;;;;;;;7.25;7.25;;;;;19.96;56.84;101099.97;5076376;28;45348;-67
2021/06/22 17:06:06;;;;;;;;;9.00;9.00;;;;;19.94;56.50;101099.09;5073870;28;45442;-67
2021/06/22 17:08:31;;;;;;;;;10.50;10.25;;;;;19.95;56.43;101114.06;5074589;27;45421;-67
2021/06/22 17:10:56;;;;;;;;;8.50;8.50;;;;;19.94;56.58;101116.72;5077995;27;50745;-67
2021/06/22 17:13:22;;;;;;;;;11.50;9.50;;;;;19.93;56.17;101109.66;5078759;27;45481;-67
2021/06/22 17:15:47;;;;;;;;;9.75;9.75;;;;;19.92;56.36;101115.81;5078907;27;45286;-67
2021/06/22 17:18:13;;;;;;;;;9.00;8.00;;;;;19.90;56.21;101113.22;5080495;27;54802;-67
2021/06/22 17:20:38;;;;;;;;;7.75;7.75;;;;;19.90;55.92;101117.63;5079703;27;45375;-66
2021/06/22 17:23:06;;;;;;;;;10.00;7.25;;;;;19.89;56.39;101121.13;5078338;27;45361;-67
2021/06/22 17:25:34;;;;;;;;;6.50;6.50;;;;;19.87;56.76;101115.88;5078771;27;45407;-67
2021/06/22 17:28:03;;;;;;;;;11.25;8.50;;;;;19.84;56.25;101123.81;5054194;28;47480;-66
2021/06/22 17:30:29;;;;;;;;;9.75;8.75;;;;;19.87;56.52;101122.94;5092125;27;45317;-67
2021/06/22 17:32:55;;;;;;;;;6.75;6.75;;;;;19.82;56.52;101125.59;5078121;28;45554;-67
2021/06/22 17:35:21;;;;;;;;;10.50;8.00;;;;;19.82;56.43;101125.59;5078546;27;45645;-67
2021/06/22 17:37:47;;;;;;;;;11.00;10.25;;;;;19.80;56.13;101128.25;5078260;27;47456;-67
2021/06/22 17:40:12;;;;;;;;;12.25;8.00;;;;;19.80;56.09;101135.28;5070113;27;45450;-67
2021/06/22 17:42:38;;;;;;;;;9.75;8.50;;;;;19.77;56.23;101130.88;5042352;28;45352;-67
2021/06/22 17:45:04;;;;;;;;;8.00;8.00;;;;;19.76;56.41;101131.75;5075697;28;45469;-67
2021/06/22 17:47:29;;;;;;;;;11.25;10.50;;;;;19.74;55.96;101133.53;5080109;27;45484;-67
2021/06/22 17:49:55;;;;;;;;;12.00;9.50;;;;;19.73;55.93;101133.53;5078912;27;50629;-67
2021/06/22 17:52:21;;;;;;;;;13.75;11.75;;;;;19.72;56.23;101127.38;5077122;28;45484;-67
2021/06/22 17:54:46;;;;;;;;;12.00;10.75;;;;;19.70;56.54;101138.84;5078777;27;45843;-67
2021/06/22 17:57:12;;;;;;;;;12.25;11.25;;;;;19.70;56.38;101141.47;5078597;27;58163;-67
2021/06/22 17:59:37;;;;;;;;;10.50;10.50;;;;;19.68;55.93;101144.13;5080274;27;45546;-67
2021/06/22 18:02:03;;;;;;;;;16.00;12.25;;;;;19.65;55.87;101137.09;5080190;27;46141;-67
2021/06/22 18:04:28;;;;;;;;;12.00;12.00;;;;;19.64;55.87;101134.47;5080483;27;45419;-67
2021/06/22 18:06:54;;;;;;;;;14.00;12.25;;;;;19.64;56.04;101137.97;5078209;27;45365;-67
2021/06/22 18:09:19;;;;;;;;;16.00;13.75;;;;;19.63;56.04;101135.34;5079791;27;52770;-67
2021/06/22 18:11:45;;;;;;;;;18.75;15.75;;;;;19.63;55.63;101138.88;5078987;27;50334;-67
2021/06/22 18:14:10;;;;;;;;;14.50;12.00;;;;;19.63;55.69;101135.34;5080625;27;45281;-67
2021/06/22 18:16:35;;;;;;;;;14.25;14.00;;;;;19.53;56.32;101121.38;5075762;27;55359;-67
2021/06/22 18:19:01;;;;;;;;;22.75;16.25;;;;;19.60;55.83;101146.78;5059070;28;50605;-67
2021/06/22 18:21:26;;;;;;;;;15.00;13.25;;;;;19.53;55.43;101134.53;5077490;27;45214;-67
2021/06/22 18:23:52;;;;;;;;;19.25;17.50;;;;;19.53;55.79;101163.53;5078908;27;46772;-67
2021/06/22 18:26:18;;;;;;;;;18.25;15.75;;;;;19.51;56.06;101167.97;5078703;27;46651;-67
2021/06/22 18:28:44;;;;;;;;;17.25;15.00;;;;;19.49;55.47;101164.44;5079795;27;45241;-67
2021/06/22 18:31:09;;;;;;;;;22.00;18.00;;;;;19.48;56.03;101181.16;5076663;28;45463;-67
2021/06/22 18:33:36;;;;;;;;;17.00;15.25;;;;;19.42;56.16;101168.00;5078012;27;45321;-67
2021/06/22 18:36:02;;;;;;;;;18.75;16.50;;;;;19.47;55.98;101182.06;5079778;27;45406;-67
2021/06/22 18:38:27;;;;;;;;;22.00;17.25;;;;;19.47;55.68;101195.25;5079804;27;45481;-67
2021/06/22 18:40:53;;;;;;;;;19.00;18.75;;;;;19.45;55.48;101192.63;5076616;27;45491;-67
2021/06/22 18:43:19;;;;;;;;;18.50;16.00;;;;;19.44;55.32;101195.22;5078670;27;45475;-67
2021/06/22 18:45:44;;;;;;;;;20.75;18.75;;;;;19.42;55.88;101191.75;5077460;28;45331;-67
2021/06/22 18:48:10;;;;;;;;;21.25;17.75;;;;;19.39;56.05;101195.28;5078250;28;45433;-67
2021/06/22 18:50:37;;;;;;;;;19.50;18.00;;;;;19.39;55.98;101207.59;5076036;28;45314;-67
2021/06/22 18:53:02;;;;;;;;;24.75;19.75;;;;;19.39;56.12;101205.81;5079783;27;45494;-67
2021/06/22 18:55:28;;;;;;;;;21.25;19.75;;;;;19.38;56.15;101205.81;5079389;27;45870;-67
2021/06/22 18:57:53;;;;;;;;;23.75;20.25;;;;;19.39;55.57;101197.03;5078169;28;45408;-67
2021/06/22 19:00:19;;;;;;;;;24.00;21.50;;;;;19.38;55.47;101196.16;5079123;27;49111;-67
2021/06/22 19:02:46;;;;;;;;;25.25;21.75;;;;;19.37;55.44;101201.44;5076271;27;45527;-67
2021/06/22 19:05:12;;;;;;;;;22.75;20.50;;;;;19.38;55.84;101206.69;5079110;27;46229;-67
2021/06/22 19:07:37;;;;;;;;;27.25;22.25;;;;;19.37;55.77;101209.34;5076312;27;45703;-66
2021/06/22 19:10:04;;;;;;;;;23.25;21.00;;;;;19.36;55.96;101216.38;5078006;28;45535;-67
2021/06/22 19:12:29;;;;;;;;;28.00;23.75;;;;;19.35;55.41;101221.66;5077302;27;45318;-67
2021/06/22 19:14:55;;;;;;;;;25.75;21.50;;;;;19.34;56.14;101215.50;5077306;28;45563;-69
2021/06/22 19:17:20;;;;;;;;;26.00;23.75;;;;;19.32;56.08;101220.78;5075843;27;45548;-67
2021/06/22 19:19:46;;;;;;;;;30.25;25.25;;;;;19.33;55.95;101222.53;5080352;27;45454;-67
2021/06/22 19:22:11;;;;;;;;;27.50;25.25;;;;;19.33;55.72;101226.94;5085796;27;45424;-69
2021/06/22 19:24:37;;;;;;;;;25.00;22.25;;;;;19.32;55.78;101226.03;5078081;27;47641;-70
2021/06/22 19:27:02;;;;;;;;;28.50;26.75;;;;;19.33;56.16;101226.94;5078532;27;54611;-71
2021/06/22 19:29:28;;;;;;;;;25.00;24.00;;;;;19.30;55.64;101219.03;5078515;27;45282;-70
2021/06/22 19:31:53;;;;;;;;;25.25;23.25;;;;;19.33;56.10;101232.22;5077497;27;45456;-71
2021/06/22 19:34:19;;;;;;;;;34.50;28.00;;;;;19.32;55.49;101227.81;5076166;27;54654;-71
2021/06/22 19:36:44;;;;;;;;;30.50;27.25;;;;;19.30;55.67;101225.19;5078706;27;45274;-72
2021/06/22 19:39:09;;;;;;;;;27.25;25.50;;;;;19.31;55.55;101228.69;5076451;27;49814;-73
2021/06/22 19:41:35;;;;;;;;;26.75;26.75;;;;;19.30;56.03;101237.47;5078717;27;45406;-69
2021/06/22 19:44:00;;;;;;;;;33.25;29.00;;;;;19.29;55.35;101226.06;5076814;28;45297;-71
2021/06/22 19:46:26;;;;;;;;;30.50;26.75;;;;;19.28;55.58;101226.94;5078157;27;45434;-71
2021/06/22 19:48:52;;;;;;;;;32.00;29.25;;;;;19.27;56.08;101222.53;5078228;27;45261;-68
2021/06/22 19:51:22;;;;;;;;;32.25;28.75;;;;;19.26;55.45;101228.72;5078730;27;45409;-69
2021/06/22 19:53:48;;;;;;;;;28.00;27.25;;;;;19.24;55.56;101238.38;5076552;27;46325;-68
2021/06/22 19:56:14;;;;;;;;;34.25;29.00;;;;;19.21;55.97;101230.50;5076492;28;45558;-69
2021/06/22 19:58:39;;;;;;;;;33.75;30.25;;;;;19.21;55.94;101248.06;5062759;27;51857;-69
2021/06/22 20:01:05;;;;;;;;;39.75;33.50;;;;;19.15;55.93;101238.41;5073709;28;45379;-69
2021/06/22 20:03:30;;;;;;;;;36.50;33.00;;;;;19.18;55.73;101248.97;5077751;27;45886;-69
2021/06/22 20:05:55;;;;;;;;;36.50;31.25;;;;;19.16;56.05;101253.34;5072307;28;58762;-69
2021/06/22 20:08:21;;;;;;;;;37.50;32.75;;;;;19.15;56.22;101254.22;5076266;27;45468;-69
2021/06/22 20:10:47;;;;;;;;;42.00;35.50;;;;;19.14;55.52;101255.97;5074701;28;45452;-68